sensor_id;sensor_type;location;lat;lon;timestamp;temperature;humidity
29453;DHT22;16424;50.956;5.320;2023-04-21T00:02:23;8.30;99.90
29453;DHT22;16424;50.956;5.320;2023-04-21T00:04:49;8.10;99.90
29453;DHT22;16424;50.956;5.320;2023-04-21T00:07:16;8.20;99.90
29453;DHT22;16424;50.956;5.320;2023-04-21T00:09:42;8.40;99.90
29453;DHT22;16424;50.956;5.320;2023-04-21T00:12:08;8.30;99.90
29453;DHT22;16424;50.956;5.320;2023-04-21T00:14:33;8.20;99.90
29453;DHT22;16424;50.956;5.320;2023-04-21T00:16:59;8.40;99.90
29453;DHT22;16424;50.956;5.320;2023-04-21T00:19:25;8.40;99.90
29453;DHT22;16424;50.956;5.320;2023-04-21T00:21:51;8.30;99.90
29453;DHT22;16424;50.956;5.320;2023-04-21T00:24:23;8.50;99.90
29453;DHT22;16424;50.956;5.320;2023-04-21T00:26:49;8.40;99.90
29453;DHT22;16424;50.956;5.320;2023-04-21T00:29:15;8.40;99.90
29453;DHT22;16424;50.956;5.320;2023-04-21T00:31:41;8.60;99.90
29453;DHT22;16424;50.956;5.320;2023-04-21T00:34:06;8.70;99.90
29453;DHT22;16424;50.956;5.320;2023-04-21T00:36:32;8.60;99.90
29453;DHT22;16424;50.956;5.320;2023-04-21T00:38:58;8.60;99.90
29453;DHT22;16424;50.956;5.320;2023-04-21T00:41:23;8.40;99.90
29453;DHT22;16424;50.956;5.320;2023-04-21T00:44:00;8.20;99.90
29453;DHT22;16424;50.956;5.320;2023-04-21T00:46:26;8.30;99.90
29453;DHT22;16424;50.956;5.320;2023-04-21T00:48:52;8.40;99.90
29453;DHT22;16424;50.956;5.320;2023-04-21T00:51:18;8.50;99.90
29453;DHT22;16424;50.956;5.320;2023-04-21T00:53:44;8.50;99.90
29453;DHT22;16424;50.956;5.320;2023-04-21T00:56:10;8.40;99.90
29453;DHT22;16424;50.956;5.320;2023-04-21T00:58:36;8.30;99.90
29453;DHT22;16424;50.956;5.320;2023-04-21T01:01:03;8.20;99.90
29453;DHT22;16424;50.956;5.320;2023-04-21T01:03:30;8.00;99.90
29453;DHT22;16424;50.956;5.320;2023-04-21T01:05:56;8.20;99.90
29453;DHT22;16424;50.956;5.320;2023-04-21T01:08:21;8.40;99.90
29453;DHT22;16424;50.956;5.320;2023-04-21T01:10:47;8.30;99.90
29453;DHT22;16424;50.956;5.320;2023-04-21T01:13:13;8.40;99.90
29453;DHT22;16424;50.956;5.320;2023-04-21T01:15:41;8.50;99.90
29453;DHT22;16424;50.956;5.320;2023-04-21T01:18:07;8.40;99.90
29453;DHT22;16424;50.956;5.320;2023-04-21T01:20:33;8.40;99.90
29453;DHT22;16424;50.956;5.320;2023-04-21T01:22:58;8.30;99.90
29453;DHT22;16424;50.956;5.320;2023-04-21T01:25:27;8.50;99.90
29453;DHT22;16424;50.956;5.320;2023-04-21T01:27:53;8.60;99.90
29453;DHT22;16424;50.956;5.320;2023-04-21T01:30:19;8.50;99.90
29453;DHT22;16424;50.956;5.320;2023-04-21T01:32:44;8.50;99.90
29453;DHT22;16424;50.956;5.320;2023-04-21T01:35:10;8.40;99.90
29453;DHT22;16424;50.956;5.320;2023-04-21T01:37:36;8.10;99.90
29453;DHT22;16424;50.956;5.320;2023-04-21T01:40:05;8.10;99.90
29453;DHT22;16424;50.956;5.320;2023-04-21T01:42:33;8.00;99.90
29453;DHT22;16424;50.956;5.320;2023-04-21T01:44:59;8.00;99.90
29453;DHT22;16424;50.956;5.320;2023-04-21T01:47:25;8.10;99.90
29453;DHT22;16424;50.956;5.320;2023-04-21T01:49:51;8.20;99.90
29453;DHT22;16424;50.956;5.320;2023-04-21T01:52:18;8.30;99.90
29453;DHT22;16424;50.956;5.320;2023-04-21T01:54:43;8.50;99.90
29453;DHT22;16424;50.956;5.320;2023-04-21T01:57:09;8.50;99.90
29453;DHT22;16424;50.956;5.320;2023-04-21T01:59:35;8.40;99.90
29453;DHT22;16424;50.956;5.320;2023-04-21T02:02:01;8.50;99.90
29453;DHT22;16424;50.956;5.320;2023-04-21T02:04:27;8.50;99.90
29453;DHT22;16424;50.956;5.320;2023-04-21T02:06:53;8.50;99.90
29453;DHT22;16424;50.956;5.320;2023-04-21T02:09:18;8.60;99.90
29453;DHT22;16424;50.956;5.320;2023-04-21T02:11:44;8.60;99.90
29453;DHT22;16424;50.956;5.320;2023-04-21T02:14:09;8.40;99.90
29453;DHT22;16424;50.956;5.320;2023-04-21T02:16:35;8.40;99.90
29453;DHT22;16424;50.956;5.320;2023-04-21T02:19:01;8.40;99.90
29453;DHT22;16424;50.956;5.320;2023-04-21T02:21:27;8.40;99.90
29453;DHT22;16424;50.956;5.320;2023-04-21T02:23:53;8.30;99.90
29453;DHT22;16424;50.956;5.320;2023-04-21T02:26:19;8.30;99.90
29453;DHT22;16424;50.956;5.320;2023-04-21T02:28:45;8.30;99.90
29453;DHT22;16424;50.956;5.320;2023-04-21T02:31:11;8.30;99.90
29453;DHT22;16424;50.956;5.320;2023-04-21T02:33:37;8.40;99.90
29453;DHT22;16424;50.956;5.320;2023-04-21T02:36:03;8.50;99.90
29453;DHT22;16424;50.956;5.320;2023-04-21T02:38:29;8.50;99.90
29453;DHT22;16424;50.956;5.320;2023-04-21T02:40:56;8.50;99.90
29453;DHT22;16424;50.956;5.320;2023-04-21T02:43:21;8.40;99.90
29453;DHT22;16424;50.956;5.320;2023-04-21T02:45:47;8.30;99.90
29453;DHT22;16424;50.956;5.320;2023-04-21T02:48:13;8.30;99.90
29453;DHT22;16424;50.956;5.320;2023-04-21T02:50:38;8.30;99.90
29453;DHT22;16424;50.956;5.320;2023-04-21T02:53:04;8.30;99.90
29453;DHT22;16424;50.956;5.320;2023-04-21T02:55:30;8.20;99.90
29453;DHT22;16424;50.956;5.320;2023-04-21T02:57:56;8.20;99.90
29453;DHT22;16424;50.956;5.320;2023-04-21T03:00:22;8.20;99.90
29453;DHT22;16424;50.956;5.320;2023-04-21T03:02:47;8.10;99.90
29453;DHT22;16424;50.956;5.320;2023-04-21T03:05:13;8.10;99.90
29453;DHT22;16424;50.956;5.320;2023-04-21T03:07:39;8.00;99.90
29453;DHT22;16424;50.956;5.320;2023-04-21T03:10:05;8.20;99.90
29453;DHT22;16424;50.956;5.320;2023-04-21T03:12:32;8.40;99.90
29453;DHT22;16424;50.956;5.320;2023-04-21T03:14:57;8.40;99.90
29453;DHT22;16424;50.956;5.320;2023-04-21T03:17:23;8.30;99.90
29453;DHT22;16424;50.956;5.320;2023-04-21T03:19:49;8.10;99.90
29453;DHT22;16424;50.956;5.320;2023-04-21T03:22:14;8.10;99.90
29453;DHT22;16424;50.956;5.320;2023-04-21T03:24:40;8.10;99.90
29453;DHT22;16424;50.956;5.320;2023-04-21T03:27:06;8.20;99.90
29453;DHT22;16424;50.956;5.320;2023-04-21T03:29:31;8.30;99.90
29453;DHT22;16424;50.956;5.320;2023-04-21T03:31:57;8.30;99.90
29453;DHT22;16424;50.956;5.320;2023-04-21T03:34:23;8.30;99.90
29453;DHT22;16424;50.956;5.320;2023-04-21T03:36:48;8.00;99.90
29453;DHT22;16424;50.956;5.320;2023-04-21T03:39:14;7.80;99.90
29453;DHT22;16424;50.956;5.320;2023-04-21T03:41:39;7.60;99.90
29453;DHT22;16424;50.956;5.320;2023-04-21T03:44:05;7.50;99.90
29453;DHT22;16424;50.956;5.320;2023-04-21T03:46:31;7.50;99.90
29453;DHT22;16424;50.956;5.320;2023-04-21T03:48:56;7.60;99.90
29453;DHT22;16424;50.956;5.320;2023-04-21T03:51:22;7.60;99.90
29453;DHT22;16424;50.956;5.320;2023-04-21T03:53:48;7.60;99.90
29453;DHT22;16424;50.956;5.320;2023-04-21T03:56:13;7.60;99.90
29453;DHT22;16424;50.956;5.320;2023-04-21T03:58:39;7.80;99.90
29453;DHT22;16424;50.956;5.320;2023-04-21T04:01:05;7.70;99.90
29453;DHT22;16424;50.956;5.320;2023-04-21T04:03:31;7.70;99.90
29453;DHT22;16424;50.956;5.320;2023-04-21T04:05:57;7.60;99.90
29453;DHT22;16424;50.956;5.320;2023-04-21T04:08:23;7.50;99.90
29453;DHT22;16424;50.956;5.320;2023-04-21T04:10:48;7.40;99.90
29453;DHT22;16424;50.956;5.320;2023-04-21T04:13:14;7.40;99.90
29453;DHT22;16424;50.956;5.320;2023-04-21T04:15:40;7.40;99.90
29453;DHT22;16424;50.956;5.320;2023-04-21T04:18:05;7.40;99.90
29453;DHT22;16424;50.956;5.320;2023-04-21T04:20:31;7.30;99.90
29453;DHT22;16424;50.956;5.320;2023-04-21T04:22:57;7.40;99.90
29453;DHT22;16424;50.956;5.320;2023-04-21T04:25:22;7.30;99.90
29453;DHT22;16424;50.956;5.320;2023-04-21T04:27:48;7.40;99.90
29453;DHT22;16424;50.956;5.320;2023-04-21T04:30:14;7.50;99.90
29453;DHT22;16424;50.956;5.320;2023-04-21T04:32:41;7.40;99.90
29453;DHT22;16424;50.956;5.320;2023-04-21T04:35:07;7.40;99.90
29453;DHT22;16424;50.956;5.320;2023-04-21T04:37:37;7.60;99.90
29453;DHT22;16424;50.956;5.320;2023-04-21T04:40:04;7.50;99.90
29453;DHT22;16424;50.956;5.320;2023-04-21T04:42:31;7.40;99.90
29453;DHT22;16424;50.956;5.320;2023-04-21T04:44:57;7.40;99.90
29453;DHT22;16424;50.956;5.320;2023-04-21T04:47:24;7.30;99.90
29453;DHT22;16424;50.956;5.320;2023-04-21T04:49:49;7.30;99.90
29453;DHT22;16424;50.956;5.320;2023-04-21T04:52:15;7.30;99.90
29453;DHT22;16424;50.956;5.320;2023-04-21T04:54:41;7.30;99.90
29453;DHT22;16424;50.956;5.320;2023-04-21T04:57:06;7.30;99.90
29453;DHT22;16424;50.956;5.320;2023-04-21T04:59:32;7.40;99.90
29453;DHT22;16424;50.956;5.320;2023-04-21T05:01:58;7.50;99.90
29453;DHT22;16424;50.956;5.320;2023-04-21T05:04:24;7.40;99.90
29453;DHT22;16424;50.956;5.320;2023-04-21T05:06:49;7.30;99.90
29453;DHT22;16424;50.956;5.320;2023-04-21T05:09:15;7.30;99.90
29453;DHT22;16424;50.956;5.320;2023-04-21T05:11:41;7.50;99.90
29453;DHT22;16424;50.956;5.320;2023-04-21T05:14:07;7.50;99.90
29453;DHT22;16424;50.956;5.320;2023-04-21T05:16:32;7.50;99.90
29453;DHT22;16424;50.956;5.320;2023-04-21T05:19:02;7.50;99.90
29453;DHT22;16424;50.956;5.320;2023-04-21T05:21:28;7.50;99.90
29453;DHT22;16424;50.956;5.320;2023-04-21T05:23:55;7.70;99.90
29453;DHT22;16424;50.956;5.320;2023-04-21T05:26:21;7.90;99.90
29453;DHT22;16424;50.956;5.320;2023-04-21T05:28:47;8.30;99.90
29453;DHT22;16424;50.956;5.320;2023-04-21T05:31:13;9.10;99.90
29453;DHT22;16424;50.956;5.320;2023-04-21T05:33:38;9.80;99.90
29453;DHT22;16424;50.956;5.320;2023-04-21T05:36:08;10.50;99.90
29453;DHT22;16424;50.956;5.320;2023-04-21T05:38:37;11.20;99.90
29453;DHT22;16424;50.956;5.320;2023-04-21T05:41:03;11.60;99.90
29453;DHT22;16424;50.956;5.320;2023-04-21T05:43:29;11.50;99.90
29453;DHT22;16424;50.956;5.320;2023-04-21T05:45:58;11.10;99.90
29453;DHT22;16424;50.956;5.320;2023-04-21T05:48:24;10.90;99.90
29453;DHT22;16424;50.956;5.320;2023-04-21T05:50:50;10.80;99.90
29453;DHT22;16424;50.956;5.320;2023-04-21T05:53:16;10.80;99.90
29453;DHT22;16424;50.956;5.320;2023-04-21T05:55:41;11.20;99.90
29453;DHT22;16424;50.956;5.320;2023-04-21T05:58:07;11.80;99.90
29453;DHT22;16424;50.956;5.320;2023-04-21T06:00:33;12.60;99.90
29453;DHT22;16424;50.956;5.320;2023-04-21T06:02:58;12.20;99.90
29453;DHT22;16424;50.956;5.320;2023-04-21T06:05:24;11.70;99.90
29453;DHT22;16424;50.956;5.320;2023-04-21T06:07:50;11.30;99.90
29453;DHT22;16424;50.956;5.320;2023-04-21T06:10:16;11.50;99.90
29453;DHT22;16424;50.956;5.320;2023-04-21T06:12:42;12.60;99.90
29453;DHT22;16424;50.956;5.320;2023-04-21T06:15:08;12.80;99.90
29453;DHT22;16424;50.956;5.320;2023-04-21T06:17:33;12.70;99.90
29453;DHT22;16424;50.956;5.320;2023-04-21T06:19:59;13.30;99.90
29453;DHT22;16424;50.956;5.320;2023-04-21T06:22:26;13.50;99.90
29453;DHT22;16424;50.956;5.320;2023-04-21T06:24:52;13.50;99.90
29453;DHT22;16424;50.956;5.320;2023-04-21T06:27:17;14.00;99.90
29453;DHT22;16424;50.956;5.320;2023-04-21T06:29:43;14.70;99.90
29453;DHT22;16424;50.956;5.320;2023-04-21T06:32:09;15.20;99.90
29453;DHT22;16424;50.956;5.320;2023-04-21T06:34:35;15.10;99.90
29453;DHT22;16424;50.956;5.320;2023-04-21T06:37:01;14.70;99.90
29453;DHT22;16424;50.956;5.320;2023-04-21T06:39:27;14.60;99.90
29453;DHT22;16424;50.956;5.320;2023-04-21T06:41:53;14.80;99.90
29453;DHT22;16424;50.956;5.320;2023-04-21T06:44:19;15.60;99.90
29453;DHT22;16424;50.956;5.320;2023-04-21T06:46:45;15.60;99.90
29453;DHT22;16424;50.956;5.320;2023-04-21T06:49:11;15.50;99.90
29453;DHT22;16424;50.956;5.320;2023-04-21T06:51:37;15.30;99.90
29453;DHT22;16424;50.956;5.320;2023-04-21T06:54:03;15.10;99.90
29453;DHT22;16424;50.956;5.320;2023-04-21T06:56:29;15.20;99.90
29453;DHT22;16424;50.956;5.320;2023-04-21T06:58:55;16.40;99.90
29453;DHT22;16424;50.956;5.320;2023-04-21T07:01:21;17.10;99.90
29453;DHT22;16424;50.956;5.320;2023-04-21T07:03:49;17.20;99.90
29453;DHT22;16424;50.956;5.320;2023-04-21T07:06:14;17.10;99.90
29453;DHT22;16424;50.956;5.320;2023-04-21T07:08:40;16.40;99.90
29453;DHT22;16424;50.956;5.320;2023-04-21T07:11:06;16.60;99.90
29453;DHT22;16424;50.956;5.320;2023-04-21T07:13:32;16.90;99.90
29453;DHT22;16424;50.956;5.320;2023-04-21T07:15:57;17.30;99.90
29453;DHT22;16424;50.956;5.320;2023-04-21T07:18:23;17.80;99.90
29453;DHT22;16424;50.956;5.320;2023-04-21T07:20:49;18.30;99.90
29453;DHT22;16424;50.956;5.320;2023-04-21T07:23:15;18.10;99.90
29453;DHT22;16424;50.956;5.320;2023-04-21T07:25:40;17.80;99.90
29453;DHT22;16424;50.956;5.320;2023-04-21T07:28:06;17.70;99.90
29453;DHT22;16424;50.956;5.320;2023-04-21T07:30:32;17.70;99.90
29453;DHT22;16424;50.956;5.320;2023-04-21T07:32:57;17.90;99.90
29453;DHT22;16424;50.956;5.320;2023-04-21T07:35:24;18.10;99.90
29453;DHT22;16424;50.956;5.320;2023-04-21T07:37:50;19.00;99.90
29453;DHT22;16424;50.956;5.320;2023-04-21T07:40:16;19.00;99.90
29453;DHT22;16424;50.956;5.320;2023-04-21T07:42:41;17.90;99.90
29453;DHT22;16424;50.956;5.320;2023-04-21T07:45:07;18.10;99.90
29453;DHT22;16424;50.956;5.320;2023-04-21T07:47:33;18.10;99.90
29453;DHT22;16424;50.956;5.320;2023-04-21T07:49:59;18.50;99.90
29453;DHT22;16424;50.956;5.320;2023-04-21T07:52:25;18.20;99.90
29453;DHT22;16424;50.956;5.320;2023-04-21T07:54:51;18.60;99.90
29453;DHT22;16424;50.956;5.320;2023-04-21T07:57:17;18.90;99.90
29453;DHT22;16424;50.956;5.320;2023-04-21T07:59:42;18.90;99.90
29453;DHT22;16424;50.956;5.320;2023-04-21T08:02:08;19.20;99.90
29453;DHT22;16424;50.956;5.320;2023-04-21T08:04:34;18.70;99.90
29453;DHT22;16424;50.956;5.320;2023-04-21T08:06:59;18.60;99.90
29453;DHT22;16424;50.956;5.320;2023-04-21T08:09:26;18.30;99.90
29453;DHT22;16424;50.956;5.320;2023-04-21T08:11:51;18.70;99.90
29453;DHT22;16424;50.956;5.320;2023-04-21T08:14:18;18.80;99.90
29453;DHT22;16424;50.956;5.320;2023-04-21T08:16:44;18.80;99.90
29453;DHT22;16424;50.956;5.320;2023-04-21T08:19:09;18.70;99.90
29453;DHT22;16424;50.956;5.320;2023-04-21T08:21:35;19.00;99.90
29453;DHT22;16424;50.956;5.320;2023-04-21T08:24:01;19.20;99.90
29453;DHT22;16424;50.956;5.320;2023-04-21T08:26:27;18.90;99.90
29453;DHT22;16424;50.956;5.320;2023-04-21T08:28:55;19.20;99.90
29453;DHT22;16424;50.956;5.320;2023-04-21T08:31:21;19.90;99.90
29453;DHT22;16424;50.956;5.320;2023-04-21T08:33:47;20.30;99.90
29453;DHT22;16424;50.956;5.320;2023-04-21T08:36:13;20.60;99.90
29453;DHT22;16424;50.956;5.320;2023-04-21T08:38:41;20.10;99.90
29453;DHT22;16424;50.956;5.320;2023-04-21T08:41:07;20.30;99.90
29453;DHT22;16424;50.956;5.320;2023-04-21T08:43:33;20.10;99.90
29453;DHT22;16424;50.956;5.320;2023-04-21T08:45:59;20.00;99.90
29453;DHT22;16424;50.956;5.320;2023-04-21T08:48:27;19.30;99.90
29453;DHT22;16424;50.956;5.320;2023-04-21T08:50:54;18.90;99.90
29453;DHT22;16424;50.956;5.320;2023-04-21T08:53:19;19.00;99.90
29453;DHT22;16424;50.956;5.320;2023-04-21T08:55:48;19.30;99.90
29453;DHT22;16424;50.956;5.320;2023-04-21T08:58:16;19.60;99.90
29453;DHT22;16424;50.956;5.320;2023-04-21T09:00:41;19.50;99.90
29453;DHT22;16424;50.956;5.320;2023-04-21T09:03:07;18.90;99.90
29453;DHT22;16424;50.956;5.320;2023-04-21T09:05:33;19.00;99.90
29453;DHT22;16424;50.956;5.320;2023-04-21T09:08:13;19.10;99.90
29453;DHT22;16424;50.956;5.320;2023-04-21T09:10:51;18.50;99.90
29453;DHT22;16424;50.956;5.320;2023-04-21T09:13:18;18.70;99.90
29453;DHT22;16424;50.956;5.320;2023-04-21T09:15:49;18.80;99.90
29453;DHT22;16424;50.956;5.320;2023-04-21T09:18:22;19.10;99.90
29453;DHT22;16424;50.956;5.320;2023-04-21T09:20:50;18.80;99.90
29453;DHT22;16424;50.956;5.320;2023-04-21T09:23:16;18.20;99.90
29453;DHT22;16424;50.956;5.320;2023-04-21T09:25:44;17.70;99.90
29453;DHT22;16424;50.956;5.320;2023-04-21T09:28:12;17.60;99.90
29453;DHT22;16424;50.956;5.320;2023-04-21T09:30:40;17.30;99.90
29453;DHT22;16424;50.956;5.320;2023-04-21T09:33:06;16.90;99.90
29453;DHT22;16424;50.956;5.320;2023-04-21T09:35:36;16.40;99.90
29453;DHT22;16424;50.956;5.320;2023-04-21T09:38:05;16.30;99.90
29453;DHT22;16424;50.956;5.320;2023-04-21T09:40:34;16.00;99.90
29453;DHT22;16424;50.956;5.320;2023-04-21T09:42:59;15.70;99.90
29453;DHT22;16424;50.956;5.320;2023-04-21T09:45:26;16.00;99.90
29453;DHT22;16424;50.956;5.320;2023-04-21T09:47:58;15.70;99.90
29453;DHT22;16424;50.956;5.320;2023-04-21T09:50:26;15.70;99.90
29453;DHT22;16424;50.956;5.320;2023-04-21T09:52:54;15.50;99.90
29453;DHT22;16424;50.956;5.320;2023-04-21T09:55:27;15.40;99.90
29453;DHT22;16424;50.956;5.320;2023-04-21T09:57:57;15.30;99.90
29453;DHT22;16424;50.956;5.320;2023-04-21T10:00:26;15.40;99.90
29453;DHT22;16424;50.956;5.320;2023-04-21T10:02:57;15.70;99.90
29453;DHT22;16424;50.956;5.320;2023-04-21T10:05:25;15.80;99.90
29453;DHT22;16424;50.956;5.320;2023-04-21T10:07:51;15.70;99.90
29453;DHT22;16424;50.956;5.320;2023-04-21T10:12:47;15.60;99.90
29453;DHT22;16424;50.956;5.320;2023-04-21T10:15:39;15.40;99.90
29453;DHT22;16424;50.956;5.320;2023-04-21T10:18:21;15.40;99.90
29453;DHT22;16424;50.956;5.320;2023-04-21T10:25:53;15.70;99.90
29453;DHT22;16424;50.956;5.320;2023-04-21T10:28:18;15.50;99.90
29453;DHT22;16424;50.956;5.320;2023-04-21T10:30:44;15.60;99.90
29453;DHT22;16424;50.956;5.320;2023-04-21T10:33:10;15.70;99.90
29453;DHT22;16424;50.956;5.320;2023-04-21T10:38:40;15.80;99.90
29453;DHT22;16424;50.956;5.320;2023-04-21T10:41:29;16.00;99.90
29453;DHT22;16424;50.956;5.320;2023-04-21T10:43:59;16.10;99.90
29453;DHT22;16424;50.956;5.320;2023-04-21T10:46:48;16.10;99.90
29453;DHT22;16424;50.956;5.320;2023-04-21T10:49:23;16.30;99.90
29453;DHT22;16424;50.956;5.320;2023-04-21T10:54:30;16.20;99.90
29453;DHT22;16424;50.956;5.320;2023-04-21T10:57:01;16.20;99.90
29453;DHT22;16424;50.956;5.320;2023-04-21T10:59:30;16.10;99.90
29453;DHT22;16424;50.956;5.320;2023-04-21T11:01:56;16.30;99.90
29453;DHT22;16424;50.956;5.320;2023-04-21T11:04:22;16.50;99.90
29453;DHT22;16424;50.956;5.320;2023-04-21T11:07:13;16.70;99.90
29453;DHT22;16424;50.956;5.320;2023-04-21T11:09:40;16.80;99.90
29453;DHT22;16424;50.956;5.320;2023-04-21T11:12:16;16.70;99.90
29453;DHT22;16424;50.956;5.320;2023-04-21T11:14:45;16.50;99.90
29453;DHT22;16424;50.956;5.320;2023-04-21T11:17:16;16.30;99.90
29453;DHT22;16424;50.956;5.320;2023-04-21T11:19:46;16.10;99.90
29453;DHT22;16424;50.956;5.320;2023-04-21T11:22:12;16.30;99.90
29453;DHT22;16424;50.956;5.320;2023-04-21T11:24:46;16.30;99.90
29453;DHT22;16424;50.956;5.320;2023-04-21T11:27:12;16.40;99.90
29453;DHT22;16424;50.956;5.320;2023-04-21T11:29:40;16.70;99.90
29453;DHT22;16424;50.956;5.320;2023-04-21T11:32:07;16.70;99.90
29453;DHT22;16424;50.956;5.320;2023-04-21T11:34:35;16.90;99.90
29453;DHT22;16424;50.956;5.320;2023-04-21T11:37:01;16.80;99.90
29453;DHT22;16424;50.956;5.320;2023-04-21T11:39:26;17.00;99.90
29453;DHT22;16424;50.956;5.320;2023-04-21T11:41:52;17.40;99.90
29453;DHT22;16424;50.956;5.320;2023-04-21T11:47:10;17.30;99.50
29453;DHT22;16424;50.956;5.320;2023-04-21T11:49:46;17.10;99.20
29453;DHT22;16424;50.956;5.320;2023-04-21T11:52:27;17.10;99.90
29453;DHT22;16424;50.956;5.320;2023-04-21T11:55:13;17.30;99.50
29453;DHT22;16424;50.956;5.320;2023-04-21T11:57:43;17.70;99.90
29453;DHT22;16424;50.956;5.320;2023-04-21T12:00:11;17.50;99.90
29453;DHT22;16424;50.956;5.320;2023-04-21T12:02:38;17.40;99.90
29453;DHT22;16424;50.956;5.320;2023-04-21T12:05:05;17.50;99.90
29453;DHT22;16424;50.956;5.320;2023-04-21T12:07:41;17.80;99.90
29453;DHT22;16424;50.956;5.320;2023-04-21T12:12:37;17.80;99.90
29453;DHT22;16424;50.956;5.320;2023-04-21T12:15:04;17.70;99.90
29453;DHT22;16424;50.956;5.320;2023-04-21T12:17:47;17.80;99.90
29453;DHT22;16424;50.956;5.320;2023-04-21T12:20:18;17.70;99.90
29453;DHT22;16424;50.956;5.320;2023-04-21T12:22:43;18.20;99.50
29453;DHT22;16424;50.956;5.320;2023-04-21T12:25:09;18.30;97.80
29453;DHT22;16424;50.956;5.320;2023-04-21T12:27:35;18.10;98.40
29453;DHT22;16424;50.956;5.320;2023-04-21T12:30:01;17.90;95.40
29453;DHT22;16424;50.956;5.320;2023-04-21T12:32:28;17.90;96.60
29453;DHT22;16424;50.956;5.320;2023-04-21T12:34:54;18.10;96.80
29453;DHT22;16424;50.956;5.320;2023-04-21T12:37:20;18.10;97.80
29453;DHT22;16424;50.956;5.320;2023-04-21T12:39:46;18.00;97.50
29453;DHT22;16424;50.956;5.320;2023-04-21T12:42:11;18.10;97.80
29453;DHT22;16424;50.956;5.320;2023-04-21T12:44:37;18.00;97.70
29453;DHT22;16424;50.956;5.320;2023-04-21T12:47:03;17.90;99.20
29453;DHT22;16424;50.956;5.320;2023-04-21T12:49:29;17.90;99.90
29453;DHT22;16424;50.956;5.320;2023-04-21T12:51:54;17.80;99.90
29453;DHT22;16424;50.956;5.320;2023-04-21T12:54:20;17.90;99.30
29453;DHT22;16424;50.956;5.320;2023-04-21T12:56:46;17.80;96.80
29453;DHT22;16424;50.956;5.320;2023-04-21T12:59:12;17.90;97.60
29453;DHT22;16424;50.956;5.320;2023-04-21T13:01:38;18.10;96.20
29453;DHT22;16424;50.956;5.320;2023-04-21T13:04:04;18.00;96.00
29453;DHT22;16424;50.956;5.320;2023-04-21T13:06:31;18.00;96.60
29453;DHT22;16424;50.956;5.320;2023-04-21T13:08:57;17.90;98.90
29453;DHT22;16424;50.956;5.320;2023-04-21T13:11:23;17.70;99.90
29453;DHT22;16424;50.956;5.320;2023-04-21T13:13:49;17.80;99.90
29453;DHT22;16424;50.956;5.320;2023-04-21T13:16:15;17.90;99.80
29453;DHT22;16424;50.956;5.320;2023-04-21T13:18:41;18.00;99.80
29453;DHT22;16424;50.956;5.320;2023-04-21T13:21:06;18.00;99.70
29453;DHT22;16424;50.956;5.320;2023-04-21T13:23:32;18.00;99.80
29453;DHT22;16424;50.956;5.320;2023-04-21T13:25:58;18.20;99.90
29453;DHT22;16424;50.956;5.320;2023-04-21T13:28:24;18.30;99.90
29453;DHT22;16424;50.956;5.320;2023-04-21T13:30:52;18.20;99.90
29453;DHT22;16424;50.956;5.320;2023-04-21T13:33:18;18.20;99.90
29453;DHT22;16424;50.956;5.320;2023-04-21T13:35:44;18.10;99.90
29453;DHT22;16424;50.956;5.320;2023-04-21T13:38:10;17.90;99.30
29453;DHT22;16424;50.956;5.320;2023-04-21T13:40:36;17.70;99.30
29453;DHT22;16424;50.956;5.320;2023-04-21T13:43:02;17.90;98.80
29453;DHT22;16424;50.956;5.320;2023-04-21T13:45:27;18.00;99.90
29453;DHT22;16424;50.956;5.320;2023-04-21T13:47:53;18.10;99.60
29453;DHT22;16424;50.956;5.320;2023-04-21T13:50:19;18.00;99.50
29453;DHT22;16424;50.956;5.320;2023-04-21T13:52:45;17.90;99.90
29453;DHT22;16424;50.956;5.320;2023-04-21T13:55:11;18.20;99.80
29453;DHT22;16424;50.956;5.320;2023-04-21T13:57:37;18.10;99.00
29453;DHT22;16424;50.956;5.320;2023-04-21T14:00:04;18.30;99.70
29453;DHT22;16424;50.956;5.320;2023-04-21T14:02:37;18.40;99.90
29453;DHT22;16424;50.956;5.320;2023-04-21T14:05:03;18.40;99.90
29453;DHT22;16424;50.956;5.320;2023-04-21T14:07:29;18.30;99.90
29453;DHT22;16424;50.956;5.320;2023-04-21T14:09:55;18.00;99.90
29453;DHT22;16424;50.956;5.320;2023-04-21T14:12:23;18.00;99.90
29453;DHT22;16424;50.956;5.320;2023-04-21T14:14:51;18.10;99.90
29453;DHT22;16424;50.956;5.320;2023-04-21T14:17:17;18.10;99.80
29453;DHT22;16424;50.956;5.320;2023-04-21T14:19:42;18.30;99.90
29453;DHT22;16424;50.956;5.320;2023-04-21T14:22:08;18.40;99.90
29453;DHT22;16424;50.956;5.320;2023-04-21T14:24:34;18.40;99.90
29453;DHT22;16424;50.956;5.320;2023-04-21T14:26:59;18.70;99.50
29453;DHT22;16424;50.956;5.320;2023-04-21T14:29:25;18.80;99.70
29453;DHT22;16424;50.956;5.320;2023-04-21T14:31:51;18.70;99.70
29453;DHT22;16424;50.956;5.320;2023-04-21T14:34:18;18.70;99.90
29453;DHT22;16424;50.956;5.320;2023-04-21T14:36:44;18.60;99.90
29453;DHT22;16424;50.956;5.320;2023-04-21T14:39:14;18.50;99.90
29453;DHT22;16424;50.956;5.320;2023-04-21T14:41:40;18.40;99.90
29453;DHT22;16424;50.956;5.320;2023-04-21T14:44:05;18.20;99.90
29453;DHT22;16424;50.956;5.320;2023-04-21T14:46:31;18.20;99.90
29453;DHT22;16424;50.956;5.320;2023-04-21T14:48:56;18.20;99.90
29453;DHT22;16424;50.956;5.320;2023-04-21T14:51:22;18.10;99.90
29453;DHT22;16424;50.956;5.320;2023-04-21T14:53:48;17.90;99.90
29453;DHT22;16424;50.956;5.320;2023-04-21T14:56:14;17.90;99.90
29453;DHT22;16424;50.956;5.320;2023-04-21T14:58:40;17.90;99.90
29453;DHT22;16424;50.956;5.320;2023-04-21T15:01:06;18.10;99.90
29453;DHT22;16424;50.956;5.320;2023-04-21T15:03:31;18.30;99.90
29453;DHT22;16424;50.956;5.320;2023-04-21T15:05:57;18.20;99.90
29453;DHT22;16424;50.956;5.320;2023-04-21T15:08:23;18.30;99.90
29453;DHT22;16424;50.956;5.320;2023-04-21T15:10:48;18.30;99.70
29453;DHT22;16424;50.956;5.320;2023-04-21T15:13:14;18.20;99.90
29453;DHT22;16424;50.956;5.320;2023-04-21T15:15:40;18.00;99.90
29453;DHT22;16424;50.956;5.320;2023-04-21T15:18:06;17.40;99.90
29453;DHT22;16424;50.956;5.320;2023-04-21T15:20:32;17.50;99.90
29453;DHT22;16424;50.956;5.320;2023-04-21T15:22:58;17.70;99.90
29453;DHT22;16424;50.956;5.320;2023-04-21T15:25:24;17.50;99.90
29453;DHT22;16424;50.956;5.320;2023-04-21T15:27:50;17.40;99.90
29453;DHT22;16424;50.956;5.320;2023-04-21T15:30:15;17.40;99.90
29453;DHT22;16424;50.956;5.320;2023-04-21T15:32:41;17.20;99.90
29453;DHT22;16424;50.956;5.320;2023-04-21T15:35:07;16.90;99.90
29453;DHT22;16424;50.956;5.320;2023-04-21T15:37:33;16.70;99.90
29453;DHT22;16424;50.956;5.320;2023-04-21T15:39:58;16.60;99.90
29453;DHT22;16424;50.956;5.320;2023-04-21T15:42:24;16.70;99.90
29453;DHT22;16424;50.956;5.320;2023-04-21T15:44:51;16.70;99.90
29453;DHT22;16424;50.956;5.320;2023-04-21T15:47:18;16.80;99.90
29453;DHT22;16424;50.956;5.320;2023-04-21T15:49:44;16.70;99.90
29453;DHT22;16424;50.956;5.320;2023-04-21T15:52:10;16.50;99.90
29453;DHT22;16424;50.956;5.320;2023-04-21T15:54:35;16.50;99.90